Glacier National Park, MT

12:02 PM MDT on October 20, 2014 (GMT -0600)
Cut Bank Municipal | Change Station
CLOSE
Current Station
Airport
Location: Cut Bank,
Elevation: 3855 ft
Nearby Weather Stations

Elev 3855 ft 48.61 °N, 112.38 °W | Updated 6 minutes ago

Clear
Clear
71 °F
Feels Like 71 °F
N
13
Wind Variable Wind from South

Today
High -- | Low -- °F
--% Chance of Precip.
Yesterday
High -- | Low -- °F
Precip. -- in
8:02 AM 6:34 PM
Waning Crescent, 10% visible
Pressure 29.74 in
Visibility 10.0 miles
Clouds Clear
Dew Point 32 °F
Humidity 24%
Rainfall 0.00 in
Snow Depth Not available.
UV 3 out of 12
Pollen .40 out of 12
Air Quality Not available.
Flu Activity No Activity
METAR KCTB 201756Z AUTO 18011KT 10SM CLR 22/00 A2980 RMK AO2 SLP069 T02170000 10217 20017 58008

More Conditions Fewer Conditions

Pressure 29.74 in
Visibility 10.0 miles
Clouds Clear
Dew Point 32 °F
Humidity 24%
Rainfall 0.00 in
Snow Depth Not available.
UV 3 out of 12
Pollen .40 out of 12
Air Quality Not available.
Flu Activity No Activity
METAR KCTB 201756Z AUTO 18011KT 10SM CLR 22/00 A2980 RMK AO2 SLP069 T02170000 10217 20017 58008

More Conditions Fewer Conditions

10-Day Weather Forecast

Almanac

Astronomy

Oct. 20, 2014 Rise Set
Actual Time 8:02 AM MDT 6:34 PM MDT
Civil Twilight 7:29 AM MDT 7:06 PM MDT
Nautical Twilight 6:53 AM MDT 7:43 PM MDT
Astronomical Twilight 6:16 AM MDT 8:19 PM MDT
Moon 4:39 AM MDT 5:12 PM MDT
Length of Visible Light 11h 36m
Length of Day
10h 32m
Waning Crescent, 10% of the Moon is Illuminated
Today
Waning Crescent
Oct 23
New
Oct 30
First Quarter
Nov 6
Full
Nov 14
Last Quarter

Today's Extremes

State Highs State Lows

Community

WunderPhotos

Upload Photos

1,763,455 photos uploaded!

Nearby

Snow Depth

Station Depth Elevation
Emery Creek 0 in 4350 ft
Pike Creek 0 in 5930 ft
Badger Pass 0 in 6900 ft
Dupuyer Creek 0 in 5750 ft
Grave Creek 0 in 4300 ft

Earthquake Activity

City Distance Mag. Time & Date
No recent earthquake activity has been reported nearby.
Minimum magnitude displayed is 2.5.

Coastal Water Temperatures

Place Temperature
No Stations Reporting

Nearby Weather Stations